sensor_id;sensor_type;location;lat;lon;timestamp;P1;P2;P0
69205;PMS7003;56319;48.920;2.332;2023-02-26T00:00:16;2.50;2.00;1.25
69205;PMS7003;56319;48.920;2.332;2023-02-26T00:02:45;3.75;2.00;1.75
69205;PMS7003;56319;48.920;2.332;2023-02-26T00:05:12;0.00;0.00;0.00
69205;PMS7003;56319;48.920;2.332;2023-02-26T00:07:38;3.50;2.25;2.00
69205;PMS7003;56319;48.920;2.332;2023-02-26T00:10:05;2.00;2.00;1.25
69205;PMS7003;56319;48.920;2.332;2023-02-26T00:12:31;2.75;2.00;1.00
69205;PMS7003;56319;48.920;2.332;2023-02-26T00:14:58;2.00;2.00;2.00
69205;PMS7003;56319;48.920;2.332;2023-02-26T00:20:29;2.00;1.50;1.50
69205;PMS7003;56319;48.920;2.332;2023-02-26T00:22:55;2.25;2.00;2.00
69205;PMS7003;56319;48.920;2.332;2023-02-26T00:25:21;2.00;2.00;2.00
69205;PMS7003;56319;48.920;2.332;2023-02-26T00:27:46;2.00;2.00;1.75
69205;PMS7003;56319;48.920;2.332;2023-02-26T00:30:13;2.00;2.00;1.00
69205;PMS7003;56319;48.920;2.332;2023-02-26T00:32:39;2.25;2.25;1.75
69205;PMS7003;56319;48.920;2.332;2023-02-26T00:35:07;3.50;2.50;2.00
69205;PMS7003;56319;48.920;2.332;2023-02-26T00:43:15;3.00;2.00;2.00
69205;PMS7003;56319;48.920;2.332;2023-02-26T00:45:44;2.25;2.25;2.00
69205;PMS7003;56319;48.920;2.332;2023-02-26T00:48:27;2.50;2.50;2.00
69205;PMS7003;56319;48.920;2.332;2023-02-26T00:51:07;4.75;3.25;2.75
69205;PMS7003;56319;48.920;2.332;2023-02-26T00:53:45;1.00;1.00;1.00
69205;PMS7003;56319;48.920;2.332;2023-02-26T00:56:16;2.75;2.50;2.00
69205;PMS7003;56319;48.920;2.332;2023-02-26T00:58:41;2.00;2.00;2.00
69205;PMS7003;56319;48.920;2.332;2023-02-26T01:01:07;3.00;3.00;2.25
69205;PMS7003;56319;48.920;2.332;2023-02-26T01:03:33;4.25;2.25;2.00
69205;PMS7003;56319;48.920;2.332;2023-02-26T01:05:59;1.00;1.00;1.00
69205;PMS7003;56319;48.920;2.332;2023-02-26T01:08:28;4.00;2.00;2.00
69205;PMS7003;56319;48.920;2.332;2023-02-26T01:10:58;2.00;2.00;2.00
69205;PMS7003;56319;48.920;2.332;2023-02-26T01:13:24;2.00;2.00;2.00
69205;PMS7003;56319;48.920;2.332;2023-02-26T01:15:52;2.25;2.25;2.00
69205;PMS7003;56319;48.920;2.332;2023-02-26T01:18:27;2.25;2.25;2.00
69205;PMS7003;56319;48.920;2.332;2023-02-26T01:21:03;3.00;2.00;2.00
69205;PMS7003;56319;48.920;2.332;2023-02-26T01:23:34;3.00;2.00;2.00
69205;PMS7003;56319;48.920;2.332;2023-02-26T01:26:06;2.00;2.00;2.00
69205;PMS7003;56319;48.920;2.332;2023-02-26T01:28:38;2.00;2.00;1.50
69205;PMS7003;56319;48.920;2.332;2023-02-26T01:31:04;2.25;2.25;2.00
69205;PMS7003;56319;48.920;2.332;2023-02-26T01:33:40;2.75;2.75;2.00
69205;PMS7003;56319;48.920;2.332;2023-02-26T01:36:15;3.00;2.00;2.00
69205;PMS7003;56319;48.920;2.332;2023-02-26T01:38:51;1.75;1.75;1.00
69205;PMS7003;56319;48.920;2.332;2023-02-26T01:41:25;2.00;2.00;2.00
69205;PMS7003;56319;48.920;2.332;2023-02-26T01:44:14;4.00;3.00;2.00
69205;PMS7003;56319;48.920;2.332;2023-02-26T01:49:55;3.00;2.25;2.00
69205;PMS7003;56319;48.920;2.332;2023-02-26T01:55:26;3.00;2.25;1.75
69205;PMS7003;56319;48.920;2.332;2023-02-26T01:57:54;3.25;2.00;2.00
69205;PMS7003;56319;48.920;2.332;2023-02-26T02:00:21;2.00;2.00;1.75
69205;PMS7003;56319;48.920;2.332;2023-02-26T02:02:48;5.00;3.00;2.00
69205;PMS7003;56319;48.920;2.332;2023-02-26T02:05:16;2.75;2.00;1.25
69205;PMS7003;56319;48.920;2.332;2023-02-26T02:07:46;4.00;2.00;2.00
69205;PMS7003;56319;48.920;2.332;2023-02-26T02:10:12;1.75;1.00;1.00
69205;PMS7003;56319;48.920;2.332;2023-02-26T02:12:40;2.50;2.00;2.00
69205;PMS7003;56319;48.920;2.332;2023-02-26T02:15:13;1.00;1.00;0.75
69205;PMS7003;56319;48.920;2.332;2023-02-26T02:20:58;2.00;2.00;2.00
69205;PMS7003;56319;48.920;2.332;2023-02-26T02:23:54;2.50;2.50;1.75
69205;PMS7003;56319;48.920;2.332;2023-02-26T02:32:32;3.00;3.00;2.50
69205;PMS7003;56319;48.920;2.332;2023-02-26T02:35:14;2.75;2.75;2.00
69205;PMS7003;56319;48.920;2.332;2023-02-26T02:37:49;2.50;2.50;2.00
69205;PMS7003;56319;48.920;2.332;2023-02-26T02:40:34;2.00;2.00;2.00
69205;PMS7003;56319;48.920;2.332;2023-02-26T02:43:06;2.00;1.00;1.00
69205;PMS7003;56319;48.920;2.332;2023-02-26T02:45:40;4.00;2.75;2.00
69205;PMS7003;56319;48.920;2.332;2023-02-26T02:48:15;2.75;2.75;2.00
69205;PMS7003;56319;48.920;2.332;2023-02-26T02:51:03;2.00;2.00;2.00
69205;PMS7003;56319;48.920;2.332;2023-02-26T02:53:36;2.00;2.00;2.00
69205;PMS7003;56319;48.920;2.332;2023-02-26T02:56:09;3.00;2.00;2.00
69205;PMS7003;56319;48.920;2.332;2023-02-26T02:58:41;4.00;2.00;2.00
69205;PMS7003;56319;48.920;2.332;2023-02-26T03:01:13;2.00;2.00;1.75
69205;PMS7003;56319;48.920;2.332;2023-02-26T03:03:49;2.75;2.00;2.00
69205;PMS7003;56319;48.920;2.332;2023-02-26T03:06:20;2.00;2.00;2.00
69205;PMS7003;56319;48.920;2.332;2023-02-26T03:08:46;1.00;1.00;1.00
69205;PMS7003;56319;48.920;2.332;2023-02-26T03:11:12;3.00;2.00;1.00
69205;PMS7003;56319;48.920;2.332;2023-02-26T03:13:38;2.25;2.25;2.00
69205;PMS7003;56319;48.920;2.332;2023-02-26T03:16:12;1.25;1.25;1.25
69205;PMS7003;56319;48.920;2.332;2023-02-26T03:27:34;2.00;2.00;1.50
69205;PMS7003;56319;48.920;2.332;2023-02-26T03:30:13;3.00;1.00;1.00
69205;PMS7003;56319;48.920;2.332;2023-02-26T03:33:05;1.50;1.00;1.00
69205;PMS7003;56319;48.920;2.332;2023-02-26T03:35:43;2.00;2.00;2.00
69205;PMS7003;56319;48.920;2.332;2023-02-26T03:38:30;1.25;1.25;1.00
69205;PMS7003;56319;48.920;2.332;2023-02-26T03:41:03;2.00;1.00;1.00
69205;PMS7003;56319;48.920;2.332;2023-02-26T03:43:36;4.75;2.00;2.00
69205;PMS7003;56319;48.920;2.332;2023-02-26T03:46:09;2.00;2.00;1.25
69205;PMS7003;56319;48.920;2.332;2023-02-26T03:48:39;3.75;3.00;2.00
69205;PMS7003;56319;48.920;2.332;2023-02-26T03:51:08;2.00;2.00;2.00
69205;PMS7003;56319;48.920;2.332;2023-02-26T03:53:41;1.00;1.00;1.00
69205;PMS7003;56319;48.920;2.332;2023-02-26T03:59:01;3.00;2.00;2.00
69205;PMS7003;56319;48.920;2.332;2023-02-26T04:01:30;2.75;2.00;2.00
69205;PMS7003;56319;48.920;2.332;2023-02-26T04:04:05;2.50;2.50;2.25
69205;PMS7003;56319;48.920;2.332;2023-02-26T04:06:36;1.75;1.75;1.50
69205;PMS7003;56319;48.920;2.332;2023-02-26T04:09:02;1.75;1.00;1.00
69205;PMS7003;56319;48.920;2.332;2023-02-26T04:11:29;3.50;2.00;1.50
69205;PMS7003;56319;48.920;2.332;2023-02-26T04:13:56;2.00;2.00;2.00
69205;PMS7003;56319;48.920;2.332;2023-02-26T04:16:22;2.75;2.75;1.00
69205;PMS7003;56319;48.920;2.332;2023-02-26T04:18:48;2.50;2.00;1.50
69205;PMS7003;56319;48.920;2.332;2023-02-26T04:21:14;2.00;2.00;2.00
69205;PMS7003;56319;48.920;2.332;2023-02-26T04:23:43;2.00;2.00;2.00
69205;PMS7003;56319;48.920;2.332;2023-02-26T04:26:08;1.50;1.50;1.00
69205;PMS7003;56319;48.920;2.332;2023-02-26T04:28:34;1.75;1.75;1.25
69205;PMS7003;56319;48.920;2.332;2023-02-26T04:31:02;3.00;1.00;1.00
69205;PMS7003;56319;48.920;2.332;2023-02-26T04:33:29;5.00;2.00;2.00
69205;PMS7003;56319;48.920;2.332;2023-02-26T04:35:55;4.50;2.75;2.00
69205;PMS7003;56319;48.920;2.332;2023-02-26T04:38:21;2.00;2.00;1.25
69205;PMS7003;56319;48.920;2.332;2023-02-26T04:40:47;2.00;2.00;1.50
69205;PMS7003;56319;48.920;2.332;2023-02-26T04:43:14;3.50;2.00;2.00
69205;PMS7003;56319;48.920;2.332;2023-02-26T04:45:40;3.75;2.00;2.00
69205;PMS7003;56319;48.920;2.332;2023-02-26T04:48:05;2.50;2.00;1.50
69205;PMS7003;56319;48.920;2.332;2023-02-26T04:50:31;3.00;2.00;2.00
69205;PMS7003;56319;48.920;2.332;2023-02-26T04:52:58;3.00;2.00;2.00
69205;PMS7003;56319;48.920;2.332;2023-02-26T04:55:23;3.75;3.00;2.25
69205;PMS7003;56319;48.920;2.332;2023-02-26T04:57:49;3.00;2.00;2.00
69205;PMS7003;56319;48.920;2.332;2023-02-26T05:00:14;1.75;1.75;1.75
69205;PMS7003;56319;48.920;2.332;2023-02-26T05:02:41;3.75;3.00;2.00
69205;PMS7003;56319;48.920;2.332;2023-02-26T05:05:07;2.00;2.00;2.00
69205;PMS7003;56319;48.920;2.332;2023-02-26T05:07:32;3.00;3.00;2.00
69205;PMS7003;56319;48.920;2.332;2023-02-26T05:09:58;4.00;2.00;1.75
69205;PMS7003;56319;48.920;2.332;2023-02-26T05:12:23;2.75;2.75;2.00
69205;PMS7003;56319;48.920;2.332;2023-02-26T05:14:49;2.00;2.00;1.75
69205;PMS7003;56319;48.920;2.332;2023-02-26T05:17:14;3.00;3.00;2.75
69205;PMS7003;56319;48.920;2.332;2023-02-26T05:19:40;3.00;2.50;2.50
69205;PMS7003;56319;48.920;2.332;2023-02-26T05:22:05;3.00;3.00;2.00
69205;PMS7003;56319;48.920;2.332;2023-02-26T05:24:31;2.00;2.00;2.00
69205;PMS7003;56319;48.920;2.332;2023-02-26T05:26:57;1.00;1.00;1.00
69205;PMS7003;56319;48.920;2.332;2023-02-26T05:29:22;5.00;3.00;2.75
69205;PMS7003;56319;48.920;2.332;2023-02-26T05:31:48;2.00;2.00;2.00
69205;PMS7003;56319;48.920;2.332;2023-02-26T05:34:13;3.00;2.75;2.00
69205;PMS7003;56319;48.920;2.332;2023-02-26T05:36:39;2.00;2.00;2.00
69205;PMS7003;56319;48.920;2.332;2023-02-26T05:39:04;2.50;2.00;2.00
69205;PMS7003;56319;48.920;2.332;2023-02-26T05:41:30;3.50;3.00;3.00
69205;PMS7003;56319;48.920;2.332;2023-02-26T05:43:55;4.00;3.00;2.00
69205;PMS7003;56319;48.920;2.332;2023-02-26T05:46:21;3.00;3.00;3.00
69205;PMS7003;56319;48.920;2.332;2023-02-26T05:48:46;3.00;3.00;2.00
69205;PMS7003;56319;48.920;2.332;2023-02-26T05:51:12;3.00;3.00;2.25
69205;PMS7003;56319;48.920;2.332;2023-02-26T05:53:37;5.00;4.00;2.75
69205;PMS7003;56319;48.920;2.332;2023-02-26T05:56:03;3.00;3.00;2.50
69205;PMS7003;56319;48.920;2.332;2023-02-26T05:58:30;2.00;2.00;2.00
69205;PMS7003;56319;48.920;2.332;2023-02-26T06:00:58;3.00;3.00;3.00
69205;PMS7003;56319;48.920;2.332;2023-02-26T06:03:24;3.00;3.00;3.00
69205;PMS7003;56319;48.920;2.332;2023-02-26T06:05:49;4.00;4.00;3.50
69205;PMS7003;56319;48.920;2.332;2023-02-26T06:08:15;6.25;3.00;3.00
69205;PMS7003;56319;48.920;2.332;2023-02-26T06:10:42;5.25;4.00;3.00
69205;PMS7003;56319;48.920;2.332;2023-02-26T06:13:08;3.00;3.00;2.75
69205;PMS7003;56319;48.920;2.332;2023-02-26T06:15:33;4.75;3.75;3.25
69205;PMS7003;56319;48.920;2.332;2023-02-26T06:17:59;4.75;3.00;3.00
69205;PMS7003;56319;48.920;2.332;2023-02-26T06:20:24;4.00;3.00;2.00
69205;PMS7003;56319;48.920;2.332;2023-02-26T06:22:50;5.50;3.75;3.00
69205;PMS7003;56319;48.920;2.332;2023-02-26T06:25:15;3.00;2.75;2.50
69205;PMS7003;56319;48.920;2.332;2023-02-26T06:27:41;3.00;3.00;2.75
69205;PMS7003;56319;48.920;2.332;2023-02-26T06:30:07;3.00;3.00;3.00
69205;PMS7003;56319;48.920;2.332;2023-02-26T06:32:33;4.00;3.75;3.00
69205;PMS7003;56319;48.920;2.332;2023-02-26T06:34:58;5.00;3.00;3.00
69205;PMS7003;56319;48.920;2.332;2023-02-26T06:37:24;9.00;6.75;4.75
69205;PMS7003;56319;48.920;2.332;2023-02-26T06:39:49;4.75;3.75;3.00
69205;PMS7003;56319;48.920;2.332;2023-02-26T06:42:15;4.00;4.00;3.25
69205;PMS7003;56319;48.920;2.332;2023-02-26T06:44:41;4.00;4.00;3.00
69205;PMS7003;56319;48.920;2.332;2023-02-26T06:47:06;4.00;4.00;3.50
69205;PMS7003;56319;48.920;2.332;2023-02-26T06:49:32;5.00;4.00;3.00
69205;PMS7003;56319;48.920;2.332;2023-02-26T06:51:57;6.75;3.75;3.00
69205;PMS7003;56319;48.920;2.332;2023-02-26T06:54:23;5.00;4.00;3.50
69205;PMS7003;56319;48.920;2.332;2023-02-26T06:56:48;5.00;3.25;2.75
69205;PMS7003;56319;48.920;2.332;2023-02-26T06:59:14;3.75;3.75;3.00
69205;PMS7003;56319;48.920;2.332;2023-02-26T07:01:40;6.75;4.00;3.00
69205;PMS7003;56319;48.920;2.332;2023-02-26T07:04:05;4.00;4.00;3.00
69205;PMS7003;56319;48.920;2.332;2023-02-26T07:06:31;1.50;0.50;0.00
69205;PMS7003;56319;48.920;2.332;2023-02-26T07:08:56;3.75;3.00;2.75
69205;PMS7003;56319;48.920;2.332;2023-02-26T07:11:22;5.50;4.00;3.00
69205;PMS7003;56319;48.920;2.332;2023-02-26T07:13:48;5.25;4.00;4.00
69205;PMS7003;56319;48.920;2.332;2023-02-26T07:16:15;5.00;5.00;4.00
69205;PMS7003;56319;48.920;2.332;2023-02-26T07:18:41;6.25;5.00;4.25
69205;PMS7003;56319;48.920;2.332;2023-02-26T07:21:06;5.00;4.00;3.50
69205;PMS7003;56319;48.920;2.332;2023-02-26T07:23:32;8.25;5.00;3.00
69205;PMS7003;56319;48.920;2.332;2023-02-26T07:25:57;5.75;5.00;3.50
69205;PMS7003;56319;48.920;2.332;2023-02-26T07:28:23;3.00;3.00;2.25
69205;PMS7003;56319;48.920;2.332;2023-02-26T07:30:49;6.75;4.50;4.00
69205;PMS7003;56319;48.920;2.332;2023-02-26T07:33:14;3.25;3.25;3.00
69205;PMS7003;56319;48.920;2.332;2023-02-26T07:35:40;4.25;4.25;3.50
69205;PMS7003;56319;48.920;2.332;2023-02-26T07:38:06;3.00;3.00;3.00
69205;PMS7003;56319;48.920;2.332;2023-02-26T07:40:32;4.50;4.00;3.00
69205;PMS7003;56319;48.920;2.332;2023-02-26T07:42:57;5.00;4.00;3.00
69205;PMS7003;56319;48.920;2.332;2023-02-26T07:45:23;4.00;3.00;2.75
69205;PMS7003;56319;48.920;2.332;2023-02-26T07:47:50;3.50;3.50;3.00
69205;PMS7003;56319;48.920;2.332;2023-02-26T07:50:16;4.00;4.00;3.75
69205;PMS7003;56319;48.920;2.332;2023-02-26T07:52:42;2.00;2.00;2.00
69205;PMS7003;56319;48.920;2.332;2023-02-26T07:55:08;4.00;3.00;2.00
69205;PMS7003;56319;48.920;2.332;2023-02-26T07:57:34;4.75;3.00;2.25
69205;PMS7003;56319;48.920;2.332;2023-02-26T08:00:00;3.50;3.50;3.00
69205;PMS7003;56319;48.920;2.332;2023-02-26T08:02:25;5.00;4.00;3.00
69205;PMS7003;56319;48.920;2.332;2023-02-26T08:04:51;3.75;3.75;2.75
69205;PMS7003;56319;48.920;2.332;2023-02-26T08:07:17;5.50;4.00;3.00
69205;PMS7003;56319;48.920;2.332;2023-02-26T08:09:42;7.75;3.25;3.00
69205;PMS7003;56319;48.920;2.332;2023-02-26T08:12:08;4.00;3.25;2.25
69205;PMS7003;56319;48.920;2.332;2023-02-26T08:14:33;3.00;3.00;3.00
69205;PMS7003;56319;48.920;2.332;2023-02-26T08:16:59;3.50;3.25;3.00
69205;PMS7003;56319;48.920;2.332;2023-02-26T08:19:24;5.00;4.00;3.25
69205;PMS7003;56319;48.920;2.332;2023-02-26T08:21:50;3.00;3.00;3.00
69205;PMS7003;56319;48.920;2.332;2023-02-26T08:24:15;3.25;3.25;2.50
69205;PMS7003;56319;48.920;2.332;2023-02-26T08:26:41;5.75;3.75;3.00
69205;PMS7003;56319;48.920;2.332;2023-02-26T08:29:07;2.25;2.00;2.00
69205;PMS7003;56319;48.920;2.332;2023-02-26T08:31:32;3.75;3.75;3.00
69205;PMS7003;56319;48.920;2.332;2023-02-26T08:33:59;3.75;3.75;3.50
69205;PMS7003;56319;48.920;2.332;2023-02-26T08:36:25;3.00;3.00;3.00
69205;PMS7003;56319;48.920;2.332;2023-02-26T08:38:51;3.25;3.25;2.00
69205;PMS7003;56319;48.920;2.332;2023-02-26T08:41:17;3.00;3.00;2.00
69205;PMS7003;56319;48.920;2.332;2023-02-26T08:43:43;3.00;3.00;2.50
69205;PMS7003;56319;48.920;2.332;2023-02-26T08:46:11;3.75;3.75;2.75
69205;PMS7003;56319;48.920;2.332;2023-02-26T08:48:36;5.00;3.50;3.00
69205;PMS7003;56319;48.920;2.332;2023-02-26T08:51:02;5.00;3.00;2.75
69205;PMS7003;56319;48.920;2.332;2023-02-26T08:53:27;2.75;2.75;2.00
69205;PMS7003;56319;48.920;2.332;2023-02-26T08:55:53;4.75;3.00;2.75
69205;PMS7003;56319;48.920;2.332;2023-02-26T08:58:19;3.00;3.00;2.00
69205;PMS7003;56319;48.920;2.332;2023-02-26T09:00:45;1.00;1.00;1.00
69205;PMS7003;56319;48.920;2.332;2023-02-26T09:03:11;2.50;2.50;2.00
69205;PMS7003;56319;48.920;2.332;2023-02-26T09:05:37;4.00;2.75;2.00
69205;PMS7003;56319;48.920;2.332;2023-02-26T09:08:05;4.25;2.50;2.00
69205;PMS7003;56319;48.920;2.332;2023-02-26T09:10:31;1.75;1.75;1.25
69205;PMS7003;56319;48.920;2.332;2023-02-26T09:12:57;2.00;2.00;1.25
69205;PMS7003;56319;48.920;2.332;2023-02-26T09:15:22;2.50;2.50;2.25
69205;PMS7003;56319;48.920;2.332;2023-02-26T09:17:48;3.00;2.25;2.00
69205;PMS7003;56319;48.920;2.332;2023-02-26T09:20:15;2.50;1.75;1.00
69205;PMS7003;56319;48.920;2.332;2023-02-26T09:22:41;4.00;2.25;2.00
69205;PMS7003;56319;48.920;2.332;2023-02-26T09:25:07;3.50;2.00;2.00
69205;PMS7003;56319;48.920;2.332;2023-02-26T09:27:33;2.00;2.00;2.00
69205;PMS7003;56319;48.920;2.332;2023-02-26T09:29:59;3.25;1.00;1.00
69205;PMS7003;56319;48.920;2.332;2023-02-26T09:32:25;4.00;2.00;2.00
69205;PMS7003;56319;48.920;2.332;2023-02-26T09:34:51;3.50;2.00;1.75
69205;PMS7003;56319;48.920;2.332;2023-02-26T09:37:17;1.00;0.00;0.00
69205;PMS7003;56319;48.920;2.332;2023-02-26T09:39:43;3.00;3.00;2.50
69205;PMS7003;56319;48.920;2.332;2023-02-26T09:42:15;2.00;1.00;1.00
69205;PMS7003;56319;48.920;2.332;2023-02-26T09:45:10;1.50;1.50;1.00
69205;PMS7003;56319;48.920;2.332;2023-02-26T09:47:45;3.00;3.00;2.00
69205;PMS7003;56319;48.920;2.332;2023-02-26T09:50:17;2.75;2.00;2.00
69205;PMS7003;56319;48.920;2.332;2023-02-26T09:52:51;1.50;1.50;1.50
69205;PMS7003;56319;48.920;2.332;2023-02-26T09:55:37;2.00;2.00;1.00
69205;PMS7003;56319;48.920;2.332;2023-02-26T09:58:11;1.25;1.00;1.00
69205;PMS7003;56319;48.920;2.332;2023-02-26T10:00:48;2.00;2.00;1.75
69205;PMS7003;56319;48.920;2.332;2023-02-26T10:03:42;5.50;2.00;1.00
69205;PMS7003;56319;48.920;2.332;2023-02-26T10:06:37;2.00;2.00;1.00
69205;PMS7003;56319;48.920;2.332;2023-02-26T10:09:21;1.75;1.00;1.00
69205;PMS7003;56319;48.920;2.332;2023-02-26T10:11:59;2.00;2.00;1.00
69205;PMS7003;56319;48.920;2.332;2023-02-26T10:17:25;2.50;1.50;1.00
69205;PMS7003;56319;48.920;2.332;2023-02-26T10:20:02;1.00;1.00;0.75
69205;PMS7003;56319;48.920;2.332;2023-02-26T10:22:38;1.00;1.00;1.00
69205;PMS7003;56319;48.920;2.332;2023-02-26T10:25:10;1.00;1.00;0.00
69205;PMS7003;56319;48.920;2.332;2023-02-26T10:27:41;2.25;1.00;1.00
69205;PMS7003;56319;48.920;2.332;2023-02-26T10:30:28;3.25;1.00;1.00
69205;PMS7003;56319;48.920;2.332;2023-02-26T10:33:06;2.00;1.75;1.25
69205;PMS7003;56319;48.920;2.332;2023-02-26T10:35:44;1.00;1.00;1.00
69205;PMS7003;56319;48.920;2.332;2023-02-26T10:38:17;3.00;1.00;1.00
69205;PMS7003;56319;48.920;2.332;2023-02-26T10:40:50;2.00;1.25;1.00
69205;PMS7003;56319;48.920;2.332;2023-02-26T10:43:28;1.00;1.00;1.00
69205;PMS7003;56319;48.920;2.332;2023-02-26T10:46:08;1.00;0.00;0.00
69205;PMS7003;56319;48.920;2.332;2023-02-26T10:52:09;2.25;1.00;1.00
69205;PMS7003;56319;48.920;2.332;2023-02-26T10:54:41;2.75;1.50;1.00
69205;PMS7003;56319;48.920;2.332;2023-02-26T10:57:15;1.00;1.00;1.00
69205;PMS7003;56319;48.920;2.332;2023-02-26T10:59:47;1.00;1.00;1.00
69205;PMS7003;56319;48.920;2.332;2023-02-26T11:02:21;1.50;1.00;1.00
69205;PMS7003;56319;48.920;2.332;2023-02-26T11:05:14;1.00;1.00;1.00
69205;PMS7003;56319;48.920;2.332;2023-02-26T11:07:41;3.75;1.00;1.00
69205;PMS7003;56319;48.920;2.332;2023-02-26T11:13:02;1.00;1.00;1.00
69205;PMS7003;56319;48.920;2.332;2023-02-26T11:15:28;0.25;0.00;0.00
69205;PMS7003;56319;48.920;2.332;2023-02-26T11:17:55;2.00;1.00;0.00
69205;PMS7003;56319;48.920;2.332;2023-02-26T11:20:29;2.00;0.50;0.00
69205;PMS7003;56319;48.920;2.332;2023-02-26T11:22:58;1.00;1.00;1.00
69205;PMS7003;56319;48.920;2.332;2023-02-26T11:25:28;1.50;1.00;1.00
69205;PMS7003;56319;48.920;2.332;2023-02-26T11:27:58;2.50;1.00;0.00
69205;PMS7003;56319;48.920;2.332;2023-02-26T11:30:28;1.00;0.00;0.00
69205;PMS7003;56319;48.920;2.332;2023-02-26T11:32:57;2.00;1.25;1.00
69205;PMS7003;56319;48.920;2.332;2023-02-26T11:35:28;0.00;0.00;0.00
69205;PMS7003;56319;48.920;2.332;2023-02-26T11:37:55;1.75;1.00;0.00
69205;PMS7003;56319;48.920;2.332;2023-02-26T11:40:27;1.00;1.00;0.25
69205;PMS7003;56319;48.920;2.332;2023-02-26T11:43:02;1.50;1.00;1.00
69205;PMS7003;56319;48.920;2.332;2023-02-26T11:45:31;0.75;0.00;0.00
69205;PMS7003;56319;48.920;2.332;2023-02-26T11:48:03;1.00;1.00;0.25
69205;PMS7003;56319;48.920;2.332;2023-02-26T11:50:32;0.00;0.00;0.00
69205;PMS7003;56319;48.920;2.332;2023-02-26T11:53:07;0.75;0.75;0.75
69205;PMS7003;56319;48.920;2.332;2023-02-26T11:55:43;1.75;1.00;0.75
69205;PMS7003;56319;48.920;2.332;2023-02-26T11:58:16;1.00;1.00;0.75
69205;PMS7003;56319;48.920;2.332;2023-02-26T12:00:44;0.50;0.00;0.00
69205;PMS7003;56319;48.920;2.332;2023-02-26T12:03:14;1.00;0.75;0.75
69205;PMS7003;56319;48.920;2.332;2023-02-26T12:05:46;0.25;0.25;0.00
69205;PMS7003;56319;48.920;2.332;2023-02-26T12:08:15;0.00;0.00;0.00
69205;PMS7003;56319;48.920;2.332;2023-02-26T12:17:00;1.00;1.00;1.00
69205;PMS7003;56319;48.920;2.332;2023-02-26T12:25:48;1.00;0.00;0.00
69205;PMS7003;56319;48.920;2.332;2023-02-26T12:28:28;0.25;0.25;0.25
69205;PMS7003;56319;48.920;2.332;2023-02-26T12:31:23;0.00;0.00;0.00
69205;PMS7003;56319;48.920;2.332;2023-02-26T12:34:17;0.00;0.00;0.00
69205;PMS7003;56319;48.920;2.332;2023-02-26T12:37:13;0.00;0.00;0.00
69205;PMS7003;56319;48.920;2.332;2023-02-26T12:42:50;0.50;0.50;0.25
69205;PMS7003;56319;48.920;2.332;2023-02-26T12:48:50;0.00;0.00;0.00
69205;PMS7003;56319;48.920;2.332;2023-02-26T12:51:43;0.00;0.00;0.00
69205;PMS7003;56319;48.920;2.332;2023-02-26T12:54:27;0.00;0.00;0.00
69205;PMS7003;56319;48.920;2.332;2023-02-26T12:57:36;0.00;0.00;0.00
69205;PMS7003;56319;48.920;2.332;2023-02-26T13:09:16;0.00;0.00;0.00
69205;PMS7003;56319;48.920;2.332;2023-02-26T13:15:03;0.00;0.00;0.00
69205;PMS7003;56319;48.920;2.332;2023-02-26T13:17:46;0.00;0.00;0.00
69205;PMS7003;56319;48.920;2.332;2023-02-26T13:20:21;0.00;0.00;0.00
69205;PMS7003;56319;48.920;2.332;2023-02-26T13:22:51;0.00;0.00;0.00
69205;PMS7003;56319;48.920;2.332;2023-02-26T13:28:19;0.00;0.00;0.00
69205;PMS7003;56319;48.920;2.332;2023-02-26T13:31:11;0.50;0.00;0.00
69205;PMS7003;56319;48.920;2.332;2023-02-26T13:33:41;1.00;1.00;1.00
69205;PMS7003;56319;48.920;2.332;2023-02-26T13:36:09;0.00;0.00;0.00
69205;PMS7003;56319;48.920;2.332;2023-02-26T13:38:41;0.50;0.00;0.00
69205;PMS7003;56319;48.920;2.332;2023-02-26T13:41:20;0.00;0.00;0.00
69205;PMS7003;56319;48.920;2.332;2023-02-26T13:44:00;0.25;0.00;0.00
69205;PMS7003;56319;48.920;2.332;2023-02-26T13:46:55;0.00;0.00;0.00
69205;PMS7003;56319;48.920;2.332;2023-02-26T13:52:30;0.00;0.00;0.00
69205;PMS7003;56319;48.920;2.332;2023-02-26T13:54:58;0.00;0.00;0.00
69205;PMS7003;56319;48.920;2.332;2023-02-26T14:06:06;0.00;0.00;0.00
69205;PMS7003;56319;48.920;2.332;2023-02-26T14:14:04;0.00;0.00;0.00
69205;PMS7003;56319;48.920;2.332;2023-02-26T14:16:35;0.00;0.00;0.00
69205;PMS7003;56319;48.920;2.332;2023-02-26T14:19:04;0.00;0.00;0.00
69205;PMS7003;56319;48.920;2.332;2023-02-26T14:21:47;0.50;0.00;0.00
69205;PMS7003;56319;48.920;2.332;2023-02-26T14:24:32;0.00;0.00;0.00
69205;PMS7003;56319;48.920;2.332;2023-02-26T14:27:06;0.00;0.00;0.00
69205;PMS7003;56319;48.920;2.332;2023-02-26T14:35:42;0.00;0.00;0.00
69205;PMS7003;56319;48.920;2.332;2023-02-26T14:38:11;0.00;0.00;0.00
69205;PMS7003;56319;48.920;2.332;2023-02-26T14:40:44;0.00;0.00;0.00
69205;PMS7003;56319;48.920;2.332;2023-02-26T14:43:17;0.00;0.00;0.00
69205;PMS7003;56319;48.920;2.332;2023-02-26T14:46:04;1.00;0.00;0.00
69205;PMS7003;56319;48.920;2.332;2023-02-26T14:48:31;0.00;0.00;0.00
69205;PMS7003;56319;48.920;2.332;2023-02-26T14:53:59;0.00;0.00;0.00
69205;PMS7003;56319;48.920;2.332;2023-02-26T15:06:03;1.25;0.00;0.00
69205;PMS7003;56319;48.920;2.332;2023-02-26T15:08:46;0.00;0.00;0.00
69205;PMS7003;56319;48.920;2.332;2023-02-26T15:11:42;0.00;0.00;0.00
69205;PMS7003;56319;48.920;2.332;2023-02-26T15:20:22;0.00;0.00;0.00
69205;PMS7003;56319;48.920;2.332;2023-02-26T15:23:13;0.00;0.00;0.00
69205;PMS7003;56319;48.920;2.332;2023-02-26T15:25:54;0.00;0.00;0.00
69205;PMS7003;56319;48.920;2.332;2023-02-26T15:28:26;1.00;0.00;0.00
69205;PMS7003;56319;48.920;2.332;2023-02-26T15:30:55;0.00;0.00;0.00
69205;PMS7003;56319;48.920;2.332;2023-02-26T15:33:24;0.00;0.00;0.00
69205;PMS7003;56319;48.920;2.332;2023-02-26T15:35:50;0.00;0.00;0.00
69205;PMS7003;56319;48.920;2.332;2023-02-26T15:38:17;0.00;0.00;0.00
69205;PMS7003;56319;48.920;2.332;2023-02-26T15:40:44;0.00;0.00;0.00
69205;PMS7003;56319;48.920;2.332;2023-02-26T15:43:12;1.25;0.25;0.25
69205;PMS7003;56319;48.920;2.332;2023-02-26T15:45:45;0.00;0.00;0.00
69205;PMS7003;56319;48.920;2.332;2023-02-26T15:48:26;0.25;0.00;0.00
69205;PMS7003;56319;48.920;2.332;2023-02-26T15:50:57;0.00;0.00;0.00
69205;PMS7003;56319;48.920;2.332;2023-02-26T15:53:28;0.50;0.00;0.00
69205;PMS7003;56319;48.920;2.332;2023-02-26T15:55:59;0.25;0.25;0.25
69205;PMS7003;56319;48.920;2.332;2023-02-26T15:58:32;0.00;0.00;0.00
69205;PMS7003;56319;48.920;2.332;2023-02-26T16:01:04;1.25;1.00;1.00
69205;PMS7003;56319;48.920;2.332;2023-02-26T16:03:31;0.00;0.00;0.00
69205;PMS7003;56319;48.920;2.332;2023-02-26T16:05:59;0.25;0.25;0.00
69205;PMS7003;56319;48.920;2.332;2023-02-26T16:08:25;1.50;0.00;0.00
69205;PMS7003;56319;48.920;2.332;2023-02-26T16:10:51;0.00;0.00;0.00
69205;PMS7003;56319;48.920;2.332;2023-02-26T16:13:24;0.25;0.00;0.00
69205;PMS7003;56319;48.920;2.332;2023-02-26T16:15:54;0.75;0.75;0.00
69205;PMS7003;56319;48.920;2.332;2023-02-26T16:18:24;1.00;1.00;0.75
69205;PMS7003;56319;48.920;2.332;2023-02-26T16:20:52;0.00;0.00;0.00
69205;PMS7003;56319;48.920;2.332;2023-02-26T16:23:23;0.50;0.50;0.25
69205;PMS7003;56319;48.920;2.332;2023-02-26T16:25:57;0.00;0.00;0.00
69205;PMS7003;56319;48.920;2.332;2023-02-26T16:28:27;0.25;0.25;0.25
69205;PMS7003;56319;48.920;2.332;2023-02-26T16:30:57;0.50;0.50;0.50
69205;PMS7003;56319;48.920;2.332;2023-02-26T16:33:24;1.00;1.00;1.00
69205;PMS7003;56319;48.920;2.332;2023-02-26T16:35:54;0.00;0.00;0.00
69205;PMS7003;56319;48.920;2.332;2023-02-26T16:38:41;1.00;1.00;1.00
69205;PMS7003;56319;48.920;2.332;2023-02-26T16:41:10;1.00;1.00;0.75
69205;PMS7003;56319;48.920;2.332;2023-02-26T16:46:29;1.50;0.00;0.00